Time;durP1;ratioP1;P1;durP2;ratioP2;P2;SDS_P1;SDS_P2;PMS_P1;PMS_P2;Temp;Humidity;BMP_temperature;BMP_pressure;BME280_temperature;BME280_humidity;BME280_pressure;Samples;Min_cycle;Max_cycle;Signal;HPM_P1;HPM_P2
2021/12/27 00:01:02;;;;;;;20.85;12.30;;;6.40;99.90;;;;;;474506;249;28058;-69
2021/12/27 00:03:03;;;;;;;19.52;12.25;;;6.30;99.90;;;;;;473901;248;27407;-69
2021/12/27 00:05:05;;;;;;;22.48;12.05;;;6.40;99.90;;;;;;474841;249;27515;-69
2021/12/27 00:07:06;;;;;;;17.85;10.20;;;6.40;99.90;;;;;;475559;248;27581;-69
2021/12/27 00:09:07;;;;;;;14.63;10.32;;;6.40;99.90;;;;;;475045;248;27511;-68
2021/12/27 00:11:08;;;;;;;12.85;9.07;;;6.40;99.90;;;;;;476041;248;27854;-69
2021/12/27 00:13:10;;;;;;;15.02;9.50;;;6.40;99.90;;;;;;476300;248;27376;-69
2021/12/27 00:15:13;;;;;;;11.93;8.48;;;6.40;99.90;;;;;;477010;248;27348;-69
2021/12/27 00:17:12;;;;;;;14.40;8.98;;;6.40;99.90;;;;;;475559;248;27414;-69
2021/12/27 00:19:14;;;;;;;16.20;9.73;;;6.40;99.90;;;;;;474342;248;27427;-69
2021/12/27 00:21:15;;;;;;;15.48;9.48;;;6.40;99.90;;;;;;474714;249;27512;-69
2021/12/27 00:23:16;;;;;;;14.48;9.50;;;6.40;99.90;;;;;;471172;249;27946;-69
2021/12/27 00:25:17;;;;;;;17.27;10.32;;;6.50;99.90;;;;;;476427;248;28735;-69
2021/12/27 00:27:19;;;;;;;15.70;10.15;;;6.40;99.90;;;;;;474525;248;27382;-69
2021/12/27 00:29:20;;;;;;;17.87;10.57;;;6.50;99.90;;;;;;471606;249;27494;-69
2021/12/27 00:31:21;;;;;;;17.58;9.57;;;6.50;99.90;;;;;;475677;246;27552;-68
2021/12/27 00:33:23;;;;;;;18.90;10.15;;;6.50;99.90;;;;;;475341;248;27579;-68
2021/12/27 00:35:26;;;;;;;18.20;11.75;;;6.50;99.90;;;;;;473753;249;28065;-68
2021/12/27 00:37:25;;;;;;;17.62;11.57;;;6.50;99.90;;;;;;474243;249;27937;-68
2021/12/27 00:39:26;;;;;;;21.62;11.70;;;6.50;99.90;;;;;;475236;248;27384;-69
2021/12/27 00:41:27;;;;;;;17.83;11.27;;;6.50;99.90;;;;;;475045;248;27407;-68
2021/12/27 00:43:29;;;;;;;19.20;11.30;;;6.50;99.90;;;;;;476198;248;27483;-69
2021/12/27 00:45:30;;;;;;;19.85;11.00;;;6.50;99.90;;;;;;474988;248;27490;-69
2021/12/27 00:47:31;;;;;;;16.92;9.68;;;6.50;99.90;;;;;;474091;248;27940;-68
2021/12/27 00:49:32;;;;;;;18.48;11.20;;;6.50;99.90;;;;;;476913;248;27478;-68
2021/12/27 00:51:34;;;;;;;17.23;10.68;;;6.60;99.90;;;;;;474014;248;27479;-68
2021/12/27 00:53:35;;;;;;;19.42;10.80;;;6.60;99.90;;;;;;476172;248;27576;-69
2021/12/27 00:55:36;;;;;;;23.15;12.25;;;6.50;99.90;;;;;;474618;248;27520;-69
2021/12/27 00:57:37;;;;;;;19.37;11.30;;;6.60;99.90;;;;;;477188;248;27971;-69
2021/12/27 00:59:39;;;;;;;17.95;11.10;;;6.60;99.90;;;;;;475066;248;27566;-69
2021/12/27 01:01:40;;;;;;;18.20;10.63;;;6.60;99.90;;;;;;476165;248;27491;-68
2021/12/27 01:03:41;;;;;;;20.85;11.30;;;6.60;99.90;;;;;;473673;248;27502;-69
2021/12/27 01:05:43;;;;;;;18.60;11.23;;;6.60;99.90;;;;;;475088;248;27463;-69
2021/12/27 01:07:44;;;;;;;16.60;10.63;;;6.60;99.90;;;;;;474778;248;27924;-69
2021/12/27 01:12:23;;;;;;;11.20;9.02;;;6.70;99.90;;;;;;474240;248;27442;-69
2021/12/27 01:14:27;;;;;;;10.77;8.63;;;6.70;99.90;;;;;;474917;248;27515;-69
2021/12/27 01:16:15;;;;;;;11.50;8.00;;;6.70;99.90;;;;;;476599;248;27832;-69
2021/12/27 01:18:17;;;;;;;11.07;7.65;;;6.70;99.90;;;;;;473961;248;27910;-69
2021/12/27 01:20:18;;;;;;;9.05;7.30;;;6.70;99.90;;;;;;472645;248;27512;-69
2021/12/27 01:22:19;;;;;;;9.13;6.50;;;6.70;99.90;;;;;;476057;247;27500;-69
2021/12/27 01:24:20;;;;;;;9.35;6.40;;;6.70;99.90;;;;;;477917;248;27590;-69
2021/12/27 01:26:22;;;;;;;8.20;6.03;;;6.70;99.90;;;;;;475620;248;27480;-69
2021/12/27 01:28:23;;;;;;;6.90;5.75;;;6.70;99.90;;;;;;476282;248;27516;-69
2021/12/27 01:30:24;;;;;;;6.70;5.07;;;6.70;99.90;;;;;;473364;248;27497;-69
2021/12/27 01:32:30;;;;;;;5.70;5.00;;;6.70;99.90;;;;;;473805;248;27973;-69
2021/12/27 01:34:27;;;;;;;7.20;5.50;;;6.80;99.90;;;;;;476091;248;27893;-68
2021/12/27 01:36:31;;;;;;;5.30;4.78;;;6.80;99.90;;;;;;477761;248;27500;-69
2021/12/27 01:38:29;;;;;;;5.32;4.82;;;6.80;99.90;;;;;;474457;248;27464;-69
2021/12/27 01:40:30;;;;;;;6.30;4.93;;;6.90;99.90;;;;;;473751;248;27518;-69
2021/12/27 01:42:32;;;;;;;5.55;4.97;;;6.90;99.90;;;;;;474921;243;27535;-69
2021/12/27 01:44:33;;;;;;;4.43;4.03;;;6.90;99.90;;;;;;476690;248;27466;-69
2021/12/27 01:46:34;;;;;;;4.90;4.32;;;6.80;99.90;;;;;;475151;248;27993;-69
2021/12/27 01:48:37;;;;;;;7.68;4.35;;;6.80;99.90;;;;;;479246;248;28836;-69
2021/12/27 01:50:37;;;;;;;4.68;4.20;;;6.80;99.90;;;;;;479106;243;27474;-69
2021/12/27 01:52:38;;;;;;;4.85;4.35;;;6.80;99.90;;;;;;479167;248;27590;-68
2021/12/27 01:54:39;;;;;;;6.37;3.90;;;6.80;99.90;;;;;;479372;248;27415;-69
2021/12/27 01:56:41;;;;;;;6.45;4.75;;;6.90;99.90;;;;;;479325;248;27430;-69
2021/12/27 01:58:42;;;;;;;6.22;4.75;;;6.80;99.90;;;;;;479403;248;27552;-69
2021/12/27 02:00:43;;;;;;;5.20;4.28;;;6.80;99.90;;;;;;479378;248;27408;-69
2021/12/27 02:02:44;;;;;;;4.87;4.37;;;6.90;99.90;;;;;;479286;248;27962;-69
2021/12/27 02:04:46;;;;;;;5.12;4.45;;;6.80;99.90;;;;;;479332;248;28255;-69
2021/12/27 02:06:47;;;;;;;4.53;3.87;;;6.90;99.90;;;;;;479320;248;27387;-69
2021/12/27 02:08:48;;;;;;;4.12;3.72;;;6.90;99.90;;;;;;479350;248;27515;-69
2021/12/27 02:10:49;;;;;;;4.30;3.90;;;6.90;99.90;;;;;;479386;248;27499;-69
2021/12/27 02:12:51;;;;;;;4.75;3.97;;;6.90;99.90;;;;;;479288;248;27526;-69
2021/12/27 02:14:52;;;;;;;4.82;4.25;;;6.90;99.90;;;;;;479317;248;27411;-69
2021/12/27 02:16:53;;;;;;;4.80;4.00;;;6.90;99.90;;;;;;479372;248;27851;-69
2021/12/27 02:18:54;;;;;;;4.22;3.83;;;6.80;99.90;;;;;;479311;248;27922;-69
2021/12/27 02:20:56;;;;;;;4.85;3.60;;;6.90;99.90;;;;;;479343;248;27491;-69
2021/12/27 02:23:00;;;;;;;5.60;3.45;;;6.90;99.90;;;;;;479370;248;27604;-69
2021/12/27 02:24:58;;;;;;;3.75;3.45;;;6.90;99.90;;;;;;479168;247;27562;-69
2021/12/27 02:26:59;;;;;;;4.10;3.72;;;6.90;99.90;;;;;;474303;248;27479;-69
2021/12/27 02:29:01;;;;;;;3.50;3.20;;;6.90;99.90;;;;;;467215;254;27507;-69
2021/12/27 02:31:02;;;;;;;3.83;3.42;;;6.90;99.90;;;;;;468384;251;28759;-69
2021/12/27 02:33:05;;;;;;;3.83;3.42;;;6.90;99.90;;;;;;482875;246;28097;-69
2021/12/27 02:35:04;;;;;;;4.82;4.20;;;6.90;99.90;;;;;;482726;246;27541;-69
2021/12/27 02:37:06;;;;;;;5.03;4.40;;;6.90;99.90;;;;;;482915;245;27566;-69
2021/12/27 02:39:07;;;;;;;6.25;4.47;;;6.90;99.90;;;;;;482921;244;27537;-68
2021/12/27 02:41:08;;;;;;;5.90;4.72;;;6.90;99.90;;;;;;474804;246;27570;-68
2021/12/27 02:43:09;;;;;;;5.75;5.15;;;6.90;99.90;;;;;;472239;249;27611;-69
2021/12/27 02:45:11;;;;;;;5.32;4.82;;;6.90;99.90;;;;;;476783;249;28019;-69
2021/12/27 02:47:12;;;;;;;6.07;4.72;;;6.90;99.90;;;;;;476824;249;27965;-69
2021/12/27 02:49:13;;;;;;;5.47;4.70;;;6.90;99.90;;;;;;476815;249;27616;-69
2021/12/27 02:51:15;;;;;;;5.85;4.70;;;6.90;99.90;;;;;;476796;249;27594;-69
2021/12/27 02:53:16;;;;;;;4.85;4.35;;;6.90;99.90;;;;;;476828;247;27543;-69
2021/12/27 02:55:17;;;;;;;6.20;5.03;;;6.90;99.90;;;;;;476797;249;27567;-69
2021/12/27 02:57:18;;;;;;;6.28;4.57;;;6.90;99.90;;;;;;476800;247;27514;-69
2021/12/27 02:59:20;;;;;;;5.55;4.70;;;6.90;99.90;;;;;;476820;249;28019;-69
2021/12/27 03:01:21;;;;;;;6.80;4.22;;;6.90;99.90;;;;;;476810;249;27979;-68
2021/12/27 03:03:22;;;;;;;5.22;4.12;;;7.00;99.90;;;;;;476859;249;27586;-69
2021/12/27 03:05:23;;;;;;;5.57;3.90;;;7.00;99.90;;;;;;476842;249;27538;-69
2021/12/27 03:07:25;;;;;;;5.35;4.37;;;7.00;99.90;;;;;;476780;249;27667;-69
2021/12/27 03:09:28;;;;;;;6.00;4.33;;;7.00;99.90;;;;;;476857;249;27661;-69
2021/12/27 03:11:27;;;;;;;6.50;4.53;;;7.00;99.90;;;;;;476736;249;27964;-69
2021/12/27 03:13:28;;;;;;;4.90;4.43;;;7.00;99.90;;;;;;476785;249;27968;-69
2021/12/27 03:15:30;;;;;;;5.40;4.78;;;7.00;99.90;;;;;;476830;249;28081;-69
2021/12/27 03:17:31;;;;;;;7.10;4.00;;;7.00;99.90;;;;;;476770;249;27627;-69
2021/12/27 03:19:32;;;;;;;8.15;4.62;;;6.90;99.90;;;;;;476783;249;27543;-69
2021/12/27 03:21:33;;;;;;;4.70;4.20;;;7.00;99.90;;;;;;476841;249;27562;-69
2021/12/27 03:23:35;;;;;;;6.03;4.87;;;7.00;99.90;;;;;;476780;249;27575;-69
2021/12/27 03:25:36;;;;;;;4.97;4.20;;;6.90;99.90;;;;;;476588;249;27638;-69
2021/12/27 03:27:37;;;;;;;4.62;3.92;;;7.00;99.90;;;;;;475999;249;28043;-69
2021/12/27 03:29:38;;;;;;;5.45;4.80;;;7.00;99.90;;;;;;475536;249;27535;-69
2021/12/27 03:31:40;;;;;;;5.10;4.60;;;7.00;99.90;;;;;;475580;249;27634;-69
2021/12/27 03:33:41;;;;;;;4.78;4.28;;;6.90;99.90;;;;;;473161;251;27485;-69
2021/12/27 03:35:51;;;;;;;4.68;3.50;;;6.90;99.90;;;;;;476060;250;27655;-69
2021/12/27 03:37:44;;;;;;;4.13;3.57;;;7.00;99.90;;;;;;474972;250;27904;-69
2021/12/27 03:39:45;;;;;;;4.05;3.65;;;6.90;99.90;;;;;;475569;249;28914;-69
2021/12/27 03:41:46;;;;;;;5.40;3.70;;;7.00;99.90;;;;;;475603;249;28122;-69
2021/12/27 03:43:47;;;;;;;4.55;4.05;;;6.90;99.90;;;;;;473160;251;27986;-69
2021/12/27 03:45:49;;;;;;;5.10;4.53;;;7.00;99.90;;;;;;476060;250;27640;-69
2021/12/27 03:47:50;;;;;;;7.00;5.03;;;6.90;99.90;;;;;;475568;250;28481;-69
2021/12/27 03:49:51;;;;;;;4.70;4.15;;;6.90;99.90;;;;;;475614;249;27539;-69
2021/12/27 03:51:52;;;;;;;4.90;3.90;;;6.80;99.90;;;;;;475592;249;27574;-69
2021/12/27 03:53:54;;;;;;;4.90;4.35;;;6.90;99.90;;;;;;476091;250;27511;-69
2021/12/27 03:55:55;;;;;;;5.45;4.18;;;6.90;99.90;;;;;;475603;250;28051;-69
2021/12/27 03:58:06;;;;;;;4.87;3.67;;;6.80;99.90;;;;;;475567;249;28052;-69
2021/12/27 04:02:17;;;;;;;5.45;3.50;;;6.80;99.90;;;;;;476089;249;27585;-69
2021/12/27 04:04:18;;;;;;;3.58;3.28;;;6.80;99.90;;;;;;475612;250;27984;-69
2021/12/27 04:06:19;;;;;;;3.67;3.37;;;6.80;99.90;;;;;;475611;249;27960;-69
2021/12/27 04:08:22;;;;;;;3.20;3.00;;;6.80;99.90;;;;;;475598;249;28013;-69
2021/12/27 04:10:22;;;;;;;3.97;3.58;;;6.90;99.90;;;;;;476033;250;27512;-69
2021/12/27 04:12:23;;;;;;;3.50;3.20;;;6.80;99.90;;;;;;475542;250;27639;-69
2021/12/27 04:14:25;;;;;;;3.25;3.00;;;6.80;99.90;;;;;;475609;250;27579;-69
2021/12/27 04:16:26;;;;;;;4.22;3.15;;;6.80;99.90;;;;;;475632;249;27511;-69
2021/12/27 04:18:27;;;;;;;2.93;2.73;;;6.80;99.90;;;;;;476106;250;27560;-69
2021/12/27 04:20:28;;;;;;;2.90;2.70;;;6.80;99.90;;;;;;475550;250;29451;-69
2021/12/27 04:22:33;;;;;;;3.40;3.10;;;6.80;99.90;;;;;;475571;249;28005;-69
2021/12/27 04:24:31;;;;;;;3.00;2.70;;;6.80;99.90;;;;;;475341;250;27538;-69
2021/12/27 04:26:32;;;;;;;3.00;2.80;;;6.80;99.90;;;;;;476118;250;27468;-69
2021/12/27 04:28:33;;;;;;;3.08;2.70;;;6.80;99.90;;;;;;475563;250;27554;-69
2021/12/27 04:30:35;;;;;;;3.30;3.00;;;6.80;99.90;;;;;;475559;249;27554;-69
2021/12/27 04:32:36;;;;;;;2.67;2.47;;;6.80;99.90;;;;;;475601;249;27575;-69
2021/12/27 04:34:37;;;;;;;3.30;2.90;;;6.80;99.90;;;;;;476069;250;28135;-69
2021/12/27 04:36:38;;;;;;;2.20;2.10;;;6.80;99.90;;;;;;475567;250;28081;-69
2021/12/27 04:38:42;;;;;;;2.62;2.42;;;6.90;99.90;;;;;;475542;249;27547;-69
2021/12/27 04:40:41;;;;;;;2.62;2.42;;;6.90;99.90;;;;;;475514;250;27511;-69
2021/12/27 04:42:42;;;;;;;2.12;2.03;;;6.80;99.90;;;;;;476085;250;27963;-69
2021/12/27 04:44:43;;;;;;;2.50;2.30;;;6.90;99.90;;;;;;475538;250;28138;-69
2021/12/27 04:46:45;;;;;;;3.08;2.78;;;6.90;99.90;;;;;;475525;249;27554;-69
2021/12/27 04:48:50;;;;;;;2.17;2.03;;;6.90;99.90;;;;;;475559;250;27598;-69
2021/12/27 04:50:47;;;;;;;3.08;2.78;;;6.90;99.90;;;;;;472904;251;27453;-68
2021/12/27 04:52:52;;;;;;;2.80;2.60;;;6.90;99.90;;;;;;476121;250;27505;-69
2021/12/27 04:54:50;;;;;;;2.83;2.62;;;6.90;99.90;;;;;;475512;250;27672;-69
2021/12/27 04:56:51;;;;;;;2.70;2.50;;;6.90;99.90;;;;;;475447;250;27988;-69
2021/12/27 04:58:52;;;;;;;2.45;2.25;;;6.90;99.90;;;;;;475616;249;28091;-69
2021/12/27 05:00:53;;;;;;;2.95;2.75;;;6.90;99.90;;;;;;473111;251;27445;-69
2021/12/27 05:02:55;;;;;;;3.65;3.08;;;7.00;99.90;;;;;;476056;250;27654;-68
2021/12/27 05:04:56;;;;;;;3.12;2.83;;;7.00;99.90;;;;;;475580;250;27586;-69
2021/12/27 05:06:57;;;;;;;3.08;2.78;;;7.00;99.90;;;;;;475524;249;27508;-69
2021/12/27 05:08:59;;;;;;;3.60;3.12;;;7.00;99.90;;;;;;475560;250;27630;-69
2021/12/27 05:11:00;;;;;;;4.60;3.17;;;7.00;99.90;;;;;;476095;250;28007;-68
2021/12/27 05:13:01;;;;;;;3.35;3.05;;;7.00;99.90;;;;;;475533;250;27895;-69
2021/12/27 05:15:03;;;;;;;3.25;3.05;;;7.10;99.90;;;;;;476841;245;27495;-69
2021/12/27 05:17:04;;;;;;;3.05;2.72;;;7.00;99.90;;;;;;471025;250;27548;-69
2021/12/27 05:19:05;;;;;;;3.20;2.90;;;7.00;99.90;;;;;;478602;245;27412;-69
2021/12/27 05:21:06;;;;;;;3.15;2.85;;;7.00;99.90;;;;;;480065;245;27545;-69
2021/12/27 05:23:07;;;;;;;3.70;3.25;;;7.10;99.90;;;;;;477392;245;27995;-69
2021/12/27 05:25:11;;;;;;;4.20;2.90;;;7.10;99.90;;;;;;475085;249;27907;-69
2021/12/27 05:27:10;;;;;;;3.60;3.30;;;7.10;99.90;;;;;;481868;245;27447;-69
2021/12/27 05:29:11;;;;;;;3.00;2.80;;;7.10;99.90;;;;;;484459;245;28689;-68
2021/12/27 05:31:13;;;;;;;3.30;3.00;;;7.00;99.90;;;;;;482787;245;27884;-69
2021/12/27 05:33:14;;;;;;;3.25;2.95;;;7.10;99.90;;;;;;482848;245;28626;-69
2021/12/27 05:35:15;;;;;;;2.97;2.70;;;7.10;99.90;;;;;;481288;245;27889;-68
2021/12/27 05:37:17;;;;;;;2.90;2.40;;;7.10;99.90;;;;;;482623;245;27479;-70
2021/12/27 05:39:20;;;;;;;3.37;3.07;;;7.10;99.90;;;;;;484510;245;29316;-69
2021/12/27 05:41:19;;;;;;;3.20;3.00;;;7.10;99.90;;;;;;484070;245;27945;-69
2021/12/27 05:43:20;;;;;;;2.65;2.45;;;7.10;99.90;;;;;;483136;245;28051;-70
2021/12/27 05:45:22;;;;;;;3.05;2.72;;;7.10;99.90;;;;;;479931;245;27414;-69
2021/12/27 05:47:23;;;;;;;2.85;2.65;;;7.10;99.90;;;;;;479476;245;27509;-70
2021/12/27 05:49:24;;;;;;;2.90;2.67;;;7.10;99.90;;;;;;476452;249;27408;-69
2021/12/27 05:51:25;;;;;;;3.50;3.20;;;7.10;99.90;;;;;;476432;249;27456;-70
2021/12/27 05:53:27;;;;;;;2.65;2.45;;;7.10;99.90;;;;;;476454;249;27967;-70
2021/12/27 05:55:28;;;;;;;2.25;2.15;;;7.10;99.90;;;;;;477011;246;27974;-70
2021/12/27 05:57:30;;;;;;;2.12;2.03;;;7.10;99.90;;;;;;476735;249;28078;-70
2021/12/27 05:59:31;;;;;;;2.72;2.53;;;7.10;99.90;;;;;;477513;245;27547;-69
2021/12/27 06:01:32;;;;;;;2.12;1.92;;;7.10;99.90;;;;;;480042;245;27932;-69
2021/12/27 06:03:33;;;;;;;2.37;2.20;;;7.10;99.90;;;;;;480352;245;27936;-70
2021/12/27 06:05:35;;;;;;;2.03;1.92;;;7.10;99.90;;;;;;479255;245;27508;-70
2021/12/27 06:07:36;;;;;;;2.97;2.65;;;7.10;99.90;;;;;;478481;245;27550;-70
2021/12/27 06:09:38;;;;;;;2.42;2.22;;;7.10;99.90;;;;;;478595;245;27951;-70
2021/12/27 06:11:39;;;;;;;2.35;2.15;;;7.10;99.90;;;;;;478625;245;27469;-70
2021/12/27 06:13:40;;;;;;;2.40;2.20;;;7.20;99.90;;;;;;479254;245;27515;-70
2021/12/27 06:15:43;;;;;;;3.72;2.62;;;7.20;99.90;;;;;;479616;245;27467;-70
2021/12/27 06:17:43;;;;;;;2.28;2.15;;;7.20;99.90;;;;;;480675;245;27511;-69
2021/12/27 06:19:44;;;;;;;2.30;2.00;;;7.20;99.90;;;;;;474816;250;27690;-70
2021/12/27 06:21:45;;;;;;;2.60;2.40;;;7.20;99.90;;;;;;474882;250;28185;-69
2021/12/27 06:23:46;;;;;;;1.90;1.80;;;7.10;99.90;;;;;;474791;250;29119;-70
2021/12/27 06:25:48;;;;;;;2.28;2.08;;;7.10;99.90;;;;;;475044;250;27483;-69
2021/12/27 06:27:49;;;;;;;2.40;2.25;;;7.10;99.90;;;;;;467121;254;27557;-70
2021/12/27 06:29:50;;;;;;;3.62;2.15;;;7.10;99.90;;;;;;475488;250;27542;-69
2021/12/27 06:31:52;;;;;;;2.50;2.30;;;7.20;99.90;;;;;;476533;245;28149;-69
2021/12/27 06:33:53;;;;;;;2.03;1.70;;;7.20;99.90;;;;;;468792;249;30122;-70
2021/12/27 06:35:54;;;;;;;2.10;1.98;;;7.20;99.90;;;;;;476747;249;28949;-70
2021/12/27 06:37:55;;;;;;;2.10;2.00;;;7.20;99.90;;;;;;476761;249;27590;-70
2021/12/27 06:39:57;;;;;;;2.87;2.00;;;7.20;99.90;;;;;;476709;249;27540;-70
2021/12/27 06:41:58;;;;;;;2.12;2.03;;;7.20;99.90;;;;;;476724;249;27655;-70
2021/12/27 06:43:59;;;;;;;2.45;2.25;;;7.20;99.90;;;;;;476794;249;27522;-70
2021/12/27 06:46:01;;;;;;;2.33;2.12;;;7.20;99.90;;;;;;476695;249;27550;-70
2021/12/27 06:48:02;;;;;;;2.10;2.00;;;7.30;99.90;;;;;;476775;249;28100;-70
2021/12/27 06:50:03;;;;;;;2.22;2.10;;;7.30;99.90;;;;;;476777;249;27534;-70
2021/12/27 06:52:04;;;;;;;2.00;1.90;;;7.30;99.90;;;;;;476666;249;27551;-70
2021/12/27 06:54:06;;;;;;;2.10;2.00;;;7.30;99.90;;;;;;476799;249;27561;-70
2021/12/27 06:56:07;;;;;;;2.00;1.90;;;7.30;99.90;;;;;;476760;249;27539;-71
2021/12/27 06:58:08;;;;;;;2.10;2.00;;;7.30;99.90;;;;;;481548;245;27499;-70
2021/12/27 07:00:10;;;;;;;1.90;1.80;;;7.30;99.90;;;;;;480151;245;28736;-73
2021/12/27 07:02:12;;;;;;;2.00;1.90;;;7.30;99.90;;;;;;483409;246;28811;-73
2021/12/27 07:04:13;;;;;;;2.03;1.92;;;7.30;99.90;;;;;;483587;246;27408;-72
2021/12/27 07:06:14;;;;;;;2.00;1.90;;;7.30;99.90;;;;;;483690;246;27420;-72
2021/12/27 07:08:16;;;;;;;1.90;1.77;;;7.30;99.90;;;;;;483655;246;27905;-72
2021/12/27 07:10:19;;;;;;;2.20;2.00;;;7.20;99.90;;;;;;483657;246;28135;-73
2021/12/27 07:12:18;;;;;;;2.17;2.00;;;7.30;99.90;;;;;;484317;245;27490;-74
2021/12/27 07:14:19;;;;;;;1.80;1.70;;;7.30;99.90;;;;;;484683;245;28924;-73
2021/12/27 07:16:21;;;;;;;1.92;1.83;;;7.30;99.90;;;;;;484626;245;27543;-73
2021/12/27 07:18:23;;;;;;;2.12;1.98;;;7.30;99.90;;;;;;484721;245;27621;-73
2021/12/27 07:20:23;;;;;;;1.87;1.77;;;7.30;99.90;;;;;;484612;245;27531;-72
2021/12/27 07:22:25;;;;;;;2.27;2.07;;;7.30;99.90;;;;;;484664;245;29465;-73
2021/12/27 07:24:26;;;;;;;1.95;1.85;;;7.30;99.90;;;;;;484686;245;29043;-73
2021/12/27 07:26:27;;;;;;;1.87;1.77;;;7.40;99.90;;;;;;484646;245;28113;-72
2021/12/27 07:28:28;;;;;;;2.10;1.85;;;7.40;99.90;;;;;;484682;245;28320;-73
2021/12/27 07:30:30;;;;;;;2.23;2.10;;;7.30;99.90;;;;;;484673;245;27477;-73
2021/12/27 07:32:31;;;;;;;2.92;2.05;;;7.40;99.90;;;;;;481381;245;28437;-72
2021/12/27 07:34:32;;;;;;;1.80;1.70;;;7.40;99.90;;;;;;478756;245;27470;-73
2021/12/27 07:36:33;;;;;;;2.00;1.90;;;7.40;99.90;;;;;;474669;245;28027;-73
2021/12/27 07:38:35;;;;;;;1.87;1.77;;;7.40;99.90;;;;;;481864;245;27538;-73
2021/12/27 07:40:36;;;;;;;2.85;1.95;;;7.40;99.90;;;;;;480765;245;27557;-73
2021/12/27 07:42:37;;;;;;;1.70;1.60;;;7.40;99.90;;;;;;481289;245;27436;-73
2021/12/27 07:44:38;;;;;;;1.90;1.80;;;7.40;99.90;;;;;;479644;245;27451;-73
2021/12/27 07:46:46;;;;;;;1.70;1.60;;;7.40;99.90;;;;;;476791;245;28225;-74
2021/12/27 07:48:41;;;;;;;1.80;1.70;;;7.40;99.90;;;;;;477828;245;28112;-74
2021/12/27 07:50:42;;;;;;;1.55;1.45;;;7.40;99.90;;;;;;481081;245;27440;-72
2021/12/27 07:52:44;;;;;;;1.62;1.52;;;7.40;99.90;;;;;;479190;245;27458;-74
2021/12/27 07:54:45;;;;;;;2.10;1.80;;;7.40;99.90;;;;;;480346;245;27509;-71
2021/12/27 07:56:46;;;;;;;2.60;2.40;;;7.40;99.90;;;;;;476646;245;27540;-72
2021/12/27 07:58:47;;;;;;;2.10;1.90;;;7.50;99.90;;;;;;481334;245;28071;-73
2021/12/27 08:00:50;;;;;;;2.15;1.95;;;7.50;99.90;;;;;;479221;245;27920;-73
2021/12/27 08:02:50;;;;;;;1.90;1.80;;;7.50;99.90;;;;;;480980;245;27523;-73
2021/12/27 08:04:51;;;;;;;2.17;1.70;;;7.40;99.90;;;;;;478576;245;27616;-74
2021/12/27 08:06:53;;;;;;;1.80;1.70;;;7.40;99.90;;;;;;479300;245;27554;-73
2021/12/27 08:08:54;;;;;;;1.85;1.75;;;7.50;99.90;;;;;;482244;245;28017;-73
2021/12/27 08:10:55;;;;;;;1.98;1.77;;;7.50;99.90;;;;;;479380;245;28150;-73
2021/12/27 08:12:56;;;;;;;1.80;1.70;;;7.50;99.90;;;;;;480611;244;27570;-73
2021/12/27 08:14:58;;;;;;;1.70;1.60;;;7.50;99.90;;;;;;471155;250;27532;-73
2021/12/27 08:16:59;;;;;;;1.60;1.50;;;7.50;99.90;;;;;;473404;251;27514;-72
2021/12/27 08:19:00;;;;;;;2.08;1.98;;;7.50;99.90;;;;;;479008;248;28704;-73
2021/12/27 08:21:01;;;;;;;2.83;2.20;;;7.60;99.90;;;;;;473687;251;27542;-72
2021/12/27 08:23:03;;;;;;;1.80;1.70;;;7.70;99.90;;;;;;467858;248;28292;-73
2021/12/27 08:25:07;;;;;;;1.65;1.55;;;7.70;99.90;;;;;;469395;251;29485;-74
2021/12/27 08:27:05;;;;;;;2.03;1.93;;;7.70;99.90;;;;;;475354;250;27959;-72
2021/12/27 08:29:06;;;;;;;1.70;1.60;;;7.60;99.90;;;;;;475979;249;28723;-73
2021/12/27 08:31:08;;;;;;;1.92;1.83;;;7.70;99.90;;;;;;475647;247;27506;-72
2021/12/27 08:33:09;;;;;;;1.60;1.50;;;7.80;99.90;;;;;;476859;248;27398;-72
2021/12/27 08:35:10;;;;;;;2.17;2.00;;;7.80;99.90;;;;;;476233;248;27442;-72
2021/12/27 08:37:12;;;;;;;2.10;2.00;;;7.80;99.90;;;;;;470740;251;27860;-72
2021/12/27 08:39:13;;;;;;;1.93;1.83;;;7.80;99.90;;;;;;476699;249;28907;-73
2021/12/27 08:41:14;;;;;;;1.67;1.57;;;7.80;99.90;;;;;;476689;249;28507;-73
2021/12/27 08:43:15;;;;;;;1.70;1.60;;;7.80;99.90;;;;;;476681;249;28097;-72
2021/12/27 08:45:17;;;;;;;1.90;1.80;;;7.90;99.90;;;;;;476674;249;28743;-73
2021/12/27 08:47:18;;;;;;;1.90;1.80;;;7.90;99.90;;;;;;476711;249;27994;-72
2021/12/27 08:49:19;;;;;;;2.13;1.63;;;7.80;99.90;;;;;;476740;249;28077;-73
2021/12/27 08:51:20;;;;;;;2.10;2.00;;;7.80;99.90;;;;;;476655;249;28146;-73
2021/12/27 08:53:22;;;;;;;1.90;1.80;;;7.80;99.90;;;;;;476705;249;27554;-72
2021/12/27 08:55:23;;;;;;;1.67;1.57;;;7.80;99.90;;;;;;476142;245;27942;-73
2021/12/27 08:57:24;;;;;;;1.80;1.70;;;7.80;99.90;;;;;;474778;250;27704;-72
2021/12/27 08:59:25;;;;;;;1.80;1.70;;;7.80;99.90;;;;;;474835;250;28907;-73
2021/12/27 09:01:27;;;;;;;1.90;1.80;;;7.80;99.90;;;;;;474841;250;29365;-73
2021/12/27 09:03:28;;;;;;;2.05;1.70;;;7.90;99.90;;;;;;474766;250;28459;-72
2021/12/27 09:05:29;;;;;;;2.40;1.70;;;7.90;99.90;;;;;;474770;250;28124;-72
2021/12/27 09:07:30;;;;;;;2.23;2.03;;;8.00;99.90;;;;;;474754;250;29887;-72
2021/12/27 09:09:32;;;;;;;3.10;2.50;;;8.10;99.90;;;;;;474732;250;27970;-73
2021/12/27 09:11:33;;;;;;;3.73;2.80;;;8.10;99.90;;;;;;474783;250;28496;-72
2021/12/27 09:13:36;;;;;;;2.43;2.30;;;8.10;99.90;;;;;;474719;250;27990;-72
2021/12/27 09:15:38;;;;;;;2.73;2.47;;;8.10;99.90;;;;;;474864;250;27846;-72
2021/12/27 09:17:39;;;;;;;2.43;2.27;;;8.10;99.90;;;;;;475750;243;27958;-73
2021/12/27 09:19:42;;;;;;;2.47;2.27;;;8.10;99.90;;;;;;470332;251;28074;-74
2021/12/27 09:21:42;;;;;;;2.30;2.10;;;8.00;99.90;;;;;;474434;250;28027;-73
2021/12/27 09:23:43;;;;;;;2.33;2.13;;;7.90;99.90;;;;;;477299;249;27893;-73
2021/12/27 09:25:45;;;;;;;2.37;2.17;;;8.00;99.90;;;;;;466975;254;27859;-74
2021/12/27 09:27:45;;;;;;;2.20;2.00;;;7.90;99.90;;;;;;476914;249;28127;-73
2021/12/27 09:29:47;;;;;;;2.00;1.90;;;8.00;99.90;;;;;;476925;246;28112;-73
2021/12/27 09:31:50;;;;;;;1.87;1.77;;;8.00;99.90;;;;;;476954;245;27960;-73
2021/12/27 09:33:49;;;;;;;2.57;2.00;;;8.10;99.90;;;;;;484162;245;27774;-73
2021/12/27 09:35:50;;;;;;;2.20;2.00;;;8.10;99.90;;;;;;483865;245;27985;-74
2021/12/27 09:37:52;;;;;;;2.13;1.93;;;8.20;99.90;;;;;;484452;245;28012;-73
2021/12/27 09:39:56;;;;;;;2.50;1.90;;;8.20;99.90;;;;;;484631;245;28037;-73
2021/12/27 09:41:57;;;;;;;1.53;1.47;;;8.20;99.90;;;;;;484323;245;28591;-72
2021/12/27 09:43:58;;;;;;;2.07;1.97;;;8.30;99.90;;;;;;485338;245;28065;-73
2021/12/27 09:45:59;;;;;;;1.83;1.73;;;8.30;99.90;;;;;;485469;245;28031;-73
2021/12/27 09:48:01;;;;;;;1.93;1.83;;;8.20;99.90;;;;;;485439;245;27990;-73
2021/12/27 09:50:02;;;;;;;1.63;1.53;;;8.20;99.90;;;;;;485489;245;27791;-73
2021/12/27 09:52:03;;;;;;;1.73;1.63;;;8.10;99.90;;;;;;485476;245;27763;-72
2021/12/27 09:54:04;;;;;;;1.90;1.80;;;8.10;99.90;;;;;;485422;245;27796;-73
2021/12/27 09:56:06;;;;;;;1.93;1.83;;;8.10;99.90;;;;;;484567;245;27995;-74
2021/12/27 09:58:07;;;;;;;1.90;1.80;;;8.20;99.90;;;;;;484699;245;27951;-73
2021/12/27 10:00:08;;;;;;;2.03;1.83;;;8.20;99.90;;;;;;481439;245;27902;-73
2021/12/27 10:02:09;;;;;;;2.23;2.07;;;8.20;99.90;;;;;;483697;245;27878;-73
2021/12/27 10:04:11;;;;;;;2.37;2.17;;;8.20;99.90;;;;;;483661;245;27428;-72
2021/12/27 10:06:12;;;;;;;1.70;1.60;;;8.30;99.90;;;;;;483709;245;28147;-73
2021/12/27 10:08:13;;;;;;;1.90;1.80;;;8.30;99.90;;;;;;483682;245;27757;-73
2021/12/27 10:10:14;;;;;;;1.80;1.70;;;8.30;99.90;;;;;;484432;243;28076;-73
2021/12/27 10:12:16;;;;;;;2.07;1.97;;;8.30;99.90;;;;;;484447;245;27924;-71
2021/12/27 10:14:17;;;;;;;1.30;1.30;;;8.40;99.90;;;;;;483681;245;27780;-71
2021/12/27 10:16:18;;;;;;;1.70;1.60;;;8.40;99.90;;;;;;483659;245;28464;-74
2021/12/27 10:18:19;;;;;;;1.50;1.40;;;8.30;99.90;;;;;;483702;245;28326;-73
2021/12/27 10:20:21;;;;;;;1.40;1.30;;;8.30;99.90;;;;;;479551;246;36545;-72
2021/12/27 10:22:22;;;;;;;2.10;1.60;;;8.20;99.90;;;;;;483726;245;27848;-72
2021/12/27 10:24:30;;;;;;;2.23;1.83;;;8.40;99.90;;;;;;483693;245;28016;-72
2021/12/27 10:26:27;;;;;;;1.37;1.33;;;8.40;99.90;;;;;;483494;245;27811;-71
2021/12/27 10:28:29;;;;;;;1.40;1.30;;;8.30;99.90;;;;;;483709;243;28048;-73
2021/12/27 10:30:30;;;;;;;2.27;1.47;;;8.40;99.90;;;;;;483711;245;27889;-72
2021/12/27 10:32:31;;;;;;;1.73;1.57;;;8.40;99.90;;;;;;483575;245;28073;-73
2021/12/27 10:34:32;;;;;;;1.67;1.57;;;8.40;99.90;;;;;;483706;245;27416;-73
2021/12/27 10:36:34;;;;;;;1.17;1.17;;;8.40;99.90;;;;;;483706;245;27854;-73
2021/12/27 10:38:40;;;;;;;1.40;1.30;;;8.50;99.90;;;;;;483613;245;27928;-73
2021/12/27 10:40:36;;;;;;;1.50;1.40;;;8.60;99.90;;;;;;483849;245;27704;-73
2021/12/27 10:42:37;;;;;;;1.40;1.30;;;8.60;99.90;;;;;;485230;245;27883;-73